• Join FlightAware (Why Join?)
  • Login
  • US Flag 
02:45AM EDT


 

Airport Tracker/Info


-or-


 

Live Flight TrackerFlight Track Log ✈ UAL4670 ✈ 14-Nov-2013 ✈ KCMH - KEWR

Flight Track Log - Related Links

Times and Time Zones

All times are in EST time to prevent confusion due to time zone crossing. See the UAL4670 flight status page for this flight to view local times or setup timezone preferences in your user account.

Time Position Orientation Groundspeed Altitude Reporting Facility
EST Latitude Longitude Course Direction KTS MPH feet Rate Location/Type
01:31PM 40.0036 -82.9156 348° North 152 175 1,600  Level Indianapolis Center
01:32PM 40.0097 -82.9711 278° West 183 211 3,800 2,340 Climbing Indianapolis Center
01:32PM 40.0194 -82.9919 301° West 194 223 4,500 2,100 Climbing Indianapolis Center
01:33PM 40.0611 -82.9806 12° North 248 285 6,000 1,800 Climbing Indianapolis Center
01:34PM 40.0564 -82.3800 21° North  Level Estimated
01:34PM 40.1189 -82.9117 42° Northeast 282 325 7,800  Level Indianapolis Center
01:35PM 40.0709 -82.2518 19° North  Level Estimated
01:35PM 40.1844 -82.8431 39° Northeast 299 344 10,100  Level Indianapolis Center
01:36PM 40.1680 -82.2782 348° North  Level FlightAware Approximate
01:36PM 40.2617 -82.7606 39° Northeast 313 360 12,000  Level Indianapolis Center
01:37PM 40.3356 -82.6814 39° Northeast 335 386 13,500 1,500 Climbing Indianapolis Center
01:38PM 40.4128 -82.5967 40° Northeast 353 406 15,100 1,560 Climbing Indianapolis Center
01:39PM 40.5203 -82.5436 21° North 351 404 16,800 1,320 Climbing Indianapolis Center
01:40PM 40.6169 -82.4997 19° North 360 414 17,900 1,260 Climbing Indianapolis Center
01:41PM 40.7153 -82.4561 19° North 367 422 19,500 1,320 Climbing Indianapolis Center
01:42PM 40.8153 -82.4094 19° North 374 430 20,700 1,080 Climbing Indianapolis Center
01:43PM 40.9203 -82.3622 19° North 387 445 21,800 960 Climbing Indianapolis Center
01:44PM 41.0297 -82.3117 19° North 406 467 22,800 960 Climbing Indianapolis Center
01:45PM 41.1422 -82.2611 19° North 417 480 23,900 960 Climbing Indianapolis Center
01:46PM 41.2433 -82.1758 32° Northeast 430 495 24,900 960 Climbing Indianapolis Center
01:47PM 41.3006 -82.0286 63° Northeast 443 510 26,000 1,080 Climbing Indianapolis Center
01:48PM 41.3631 -81.8528 65° Northeast 443 510 27,200 960 Climbing Indianapolis Center
01:49PM 41.4089 -81.7236 65° Northeast 445 512 28,100 900 Climbing Indianapolis Center
01:50PM 41.4617 -81.5703 65° Northeast 443 510 29,100 1,020 Climbing Indianapolis Center
01:51PM 41.5225 -81.3944 65° Northeast 441 507 30,300 1,020 Climbing Indianapolis Center
01:52PM 41.5753 -81.2442 65° Northeast 445 512 31,400 1,020 Climbing Cleveland Center
01:53PM 41.6378 -81.0642 65° Northeast 453 521 32,600 1,020 Climbing Cleveland Center
01:54PM 41.6917 -80.9092 65° Northeast 456 525 33,600 960 Climbing Cleveland Center
01:55PM 41.7439 -80.7547 66° East 452 520 34,700 720 Climbing Cleveland Center
01:56PM 41.7939 -80.5975 67° East 453 521 35,100 120 Climbing Cleveland Center
01:58PM 41.7856 -80.4250 94° East 457 526 35,000 -60 Descending Cleveland Center
01:59PM 41.7689 -80.2483 97° East 471 542 35,000  Level Cleveland Center
02:00PM 41.7494 -80.0686 98° East 483 556 35,000  Level Cleveland Center
02:01PM 41.7311 -79.8861 98° East 490 564 35,000  Level Cleveland Center
02:02PM 41.7092 -79.6828 98° East 470 541 35,000  Level Cleveland Center
02:03PM 41.6939 -79.5361 98° East 452 520 35,000  Level Cleveland Center
02:04PM 41.6719 -79.3444 99° East 439 505 35,000  Level Cleveland Center
02:05PM 41.6550 -79.1889 98° East 425 489 35,000  Level Cleveland Center
02:06PM 41.6367 -79.0308 99° East 432 497 35,000  Level Cleveland Center
02:07PM 41.6186 -78.8636 98° East 447 514 35,000 -540 Level Cleveland Center
02:08PM 41.5983 -78.6936 99° East 460 529 33,900 -1,140 Descending Cleveland Center
02:09PM 41.5789 -78.5228 99° East 464 534 32,700 -1,320 Descending Cleveland Center
02:10PM 41.5539 -78.3156 99° East 468 539 31,200 -840 Descending Cleveland Center
02:11PM 41.5333 -78.1444 99° East 468 539 31,000 -120 Descending Cleveland Center
02:12PM 41.5125 -77.9750 99° East 464 534 31,000  Level Cleveland Center
02:13PM 41.4897 -77.8078 100° East 461 531 31,000  Level Cleveland Center
02:14PM 41.4656 -77.6394 101° East 461 531 31,000  Level Cleveland Center
02:15PM 41.4406 -77.4664 101° East 469 540 31,000  Level Cleveland Center
02:16PM 41.4100 -77.2567 101° East 480 552 31,000  Level Cleveland Center
02:17PM 41.3847 -77.0831 101° East 481 554 31,000 -300 Level Cleveland Center
02:18PM 41.3581 -76.9067 101° East 484 557 30,400 -1,380 Descending Cleveland Center
02:19PM 41.3206 -76.7131 104° East 474 545 28,200 -2,520 Descending New York Center
02:20PM 41.2800 -76.5633 110° East 479 551 25,300 -2,760 Descending New York Center
02:21PM 41.2358 -76.3994 110° East 479 551 22,800 -2,400 Descending New York Center
02:22PM 41.1894 -76.2356 111° Southeast 479 551 20,600 -2,400 Descending New York Center
02:23PM 41.1508 -76.0753 108° East 468 539 18,100 -2,040 Descending New York Center
02:24PM 41.1097 -75.9233 110° East 450 518 16,600 -1,920 Descending New York Center
02:25PM 41.0644 -75.7658 111° Southeast 430 495 14,300 -1,800 Descending New York Center
02:26PM 41.0267 -75.6228 109° East 419 482 13,000 -660 Descending New York Center
02:27PM 40.9864 -75.4853 111° Southeast 414 476 13,000 -1,200 Level New York Center
02:28PM 40.9514 -75.3647 111° Southeast 374 430 10,700 -1,860 Descending New York Center
02:29PM 40.9225 -75.2500 108° East 342 394 9,400 -1,560 Descending New York Center
02:30PM 40.8925 -75.1575 113° Southeast 308 354 7,600 -1,260 Descending New York Center
02:31PM 40.8631 -75.0514 110° East 308 354 6,900 -300 Descending New York Center
02:32PM 40.8078 -74.9711 132° Southeast 278 320 7,000 60 Climbing New York Center
02:33PM 40.7583 -74.8969 131° Southeast 273 314 7,100  Climbing New York Center
02:34PM 40.7067 -74.8225 132° Southeast 273 314 7,000 -60 Descending New York Center
02:35PM 40.6631 -74.7569 131° Southeast 273 314 7,000 -180 Level New York Center
02:36PM 40.6347 -74.6678 113° Southeast 262 302 6,700 -540 Descending New York Center
02:37PM 40.6858 -74.6325 28° Northeast 205 236 6,000 -480 Descending New York Center
02:38PM 40.7167 -74.6167 21° North 235 270 6,000  Level New York TRACON
02:39PM 40.7833 -74.5667 30° Northeast 229 264 6,000 -420 Level New York TRACON
02:40PM 40.8500 -74.5333 21° North 230 265 5,200 -480 Descending New York TRACON
02:41PM 40.8833 -74.4833 49° Northeast 200 230 5,000 -120 Descending New York TRACON
02:42PM 40.9333 -74.4500 27° Northeast 193 222 5,000  Level New York TRACON
02:43PM 40.9667 -74.3833 56° Northeast 210 242 5,000 -300 Level New York TRACON
02:44PM 40.9833 -74.3167 72° East 217 250 4,500 -540 Descending New York TRACON
02:45PM 41.0000 -74.2333 75° East 215 247 4,000 -300 Descending New York TRACON
02:46PM 41.0000 -74.1500 90° East 229 264 4,000 -360 Level New York TRACON
02:47PM 40.9667 -74.0833 123° Southeast 229 264 3,300 -540 Descending New York TRACON
02:48PM 40.9167 -74.0500 153° Southeast 191 220 3,000 -180 Descending New York TRACON
02:49PM 40.8667 -74.0500 180° South 178 205 3,000 -60 Level New York TRACON
02:50PM 40.8333 -74.0833 217° Southwest 171 197 2,900 -480 Descending New York TRACON
02:51PM 40.7833 -74.1000 194° South 167 192 2,000 -900 Descending New York TRACON
02:52PM 40.7500 -74.1333 217° Southwest 140 161 1,200 -840 Descending New York TRACON
02:53PM 40.7167 -74.1500 201° Southwest 126 145 400 -840 Descending New York TRACON